Bonfield, Illinois
Current Conditions -  °F | °C
As of 12:55 AM on Friday 28 Nov 2014 (Local Time) from KJOT Reporting Station
Scattered Clouds Scattered Clouds  
Wind Chill: 16°   Ceiling: Unl
Heat Index: 16°   Visibility: 10mi
Dew Point: 10°   Wind: 0mph
Humidity: 78%   Direction: NA
Pressure: 30.38"   Gusts: NA
Location:  41.15°N, 88.06°W
Report Text: KJOT 280655Z AUTO 00000KT 10SM SCT110 M09/M12 A3038 RMK AO2 T10881120
Loading
Personal Weather Stations






























Interactive Weather Map New forecast layout! Learn more

10-Day Weather Forecast

Advertisements
Track Severe Weather on mobile